South Park, Pennsylvania
Current Conditions -  °F | °C
As of 10:53 AM on Saturday 22 Nov 2014 (Local Time) from KAGC Reporting Station
Light Rain Light Rain  
Wind Chill: 26°   Ceiling: 6500
Heat Index: 34°   Visibility: 9mi
Dew Point: 15°   Wind: 10mph
Humidity: 46%   Direction: 200°SSW
Pressure: 30.28"   Gusts: NA
Location:  40.2926°N, 79.9947°W
Report Text: KAGC 221553Z 20009KT 9SM -RA FEW023 SCT034 OVC065 01/M09 A3028 RMK AO2 RAB39 SLP273 P0000 T00111094
Loading
Personal Weather Stations






























Interactive Weather Map New forecast layout! Learn more

10-Day Weather Forecast

Advertisements
Track Severe Weather on mobile